sensor_id;sensor_type;location;lat;lon;timestamp;temperature;humidity
7030;DHT22;3556;53.500;10.176;2023-11-22T00:00:54;1.60;99.90
7030;DHT22;3556;53.500;10.176;2023-11-22T00:03:20;1.50;99.90
7030;DHT22;3556;53.500;10.176;2023-11-22T00:05:45;1.50;99.90
7030;DHT22;3556;53.500;10.176;2023-11-22T00:08:12;1.40;99.90
7030;DHT22;3556;53.500;10.176;2023-11-22T00:10:37;1.40;99.90
7030;DHT22;3556;53.500;10.176;2023-11-22T00:13:03;1.40;99.90
7030;DHT22;3556;53.500;10.176;2023-11-22T00:15:29;1.30;99.90
7030;DHT22;3556;53.500;10.176;2023-11-22T00:17:54;1.30;99.90
7030;DHT22;3556;53.500;10.176;2023-11-22T00:20:20;1.30;99.90
7030;DHT22;3556;53.500;10.176;2023-11-22T00:22:46;1.20;99.90
7030;DHT22;3556;53.500;10.176;2023-11-22T00:25:12;1.20;99.90
7030;DHT22;3556;53.500;10.176;2023-11-22T00:27:39;1.20;99.90
7030;DHT22;3556;53.500;10.176;2023-11-22T00:30:05;1.10;99.90
7030;DHT22;3556;53.500;10.176;2023-11-22T00:32:31;1.10;99.90
7030;DHT22;3556;53.500;10.176;2023-11-22T00:34:57;1.00;99.90
7030;DHT22;3556;53.500;10.176;2023-11-22T00:37:23;1.00;99.90
7030;DHT22;3556;53.500;10.176;2023-11-22T00:39:48;0.90;99.90
7030;DHT22;3556;53.500;10.176;2023-11-22T00:42:14;0.80;99.90
7030;DHT22;3556;53.500;10.176;2023-11-22T00:44:40;0.80;99.90
7030;DHT22;3556;53.500;10.176;2023-11-22T00:47:05;0.80;99.90
7030;DHT22;3556;53.500;10.176;2023-11-22T00:49:31;0.80;99.90
7030;DHT22;3556;53.500;10.176;2023-11-22T00:51:57;0.70;99.90
7030;DHT22;3556;53.500;10.176;2023-11-22T00:54:23;0.70;99.90
7030;DHT22;3556;53.500;10.176;2023-11-22T00:56:50;0.60;99.90
7030;DHT22;3556;53.500;10.176;2023-11-22T00:59:16;0.50;99.90
7030;DHT22;3556;53.500;10.176;2023-11-22T01:01:41;0.50;99.90
7030;DHT22;3556;53.500;10.176;2023-11-22T01:04:07;0.50;99.90
7030;DHT22;3556;53.500;10.176;2023-11-22T01:06:33;0.50;99.90
7030;DHT22;3556;53.500;10.176;2023-11-22T01:09:00;0.40;99.90
7030;DHT22;3556;53.500;10.176;2023-11-22T01:11:25;0.40;99.90
7030;DHT22;3556;53.500;10.176;2023-11-22T01:13:51;0.40;99.90
7030;DHT22;3556;53.500;10.176;2023-11-22T01:16:17;0.30;99.90
7030;DHT22;3556;53.500;10.176;2023-11-22T01:18:43;0.30;99.90
7030;DHT22;3556;53.500;10.176;2023-11-22T01:21:11;0.20;99.90
7030;DHT22;3556;53.500;10.176;2023-11-22T01:23:37;0.20;99.90
7030;DHT22;3556;53.500;10.176;2023-11-22T01:26:02;0.20;99.90
7030;DHT22;3556;53.500;10.176;2023-11-22T01:28:28;0.10;99.90
7030;DHT22;3556;53.500;10.176;2023-11-22T01:30:54;0.10;99.90
7030;DHT22;3556;53.500;10.176;2023-11-22T01:33:23;0.10;99.90
7030;DHT22;3556;53.500;10.176;2023-11-22T01:35:49;0.10;99.90
7030;DHT22;3556;53.500;10.176;2023-11-22T01:38:18;0.00;99.90
7030;DHT22;3556;53.500;10.176;2023-11-22T01:40:48;0.00;99.90
7030;DHT22;3556;53.500;10.176;2023-11-22T01:43:14;0.00;99.90
7030;DHT22;3556;53.500;10.176;2023-11-22T01:45:40;0.00;99.90
7030;DHT22;3556;53.500;10.176;2023-11-22T01:48:07;0.00;99.90
7030;DHT22;3556;53.500;10.176;2023-11-22T01:50:32;0.00;99.90
7030;DHT22;3556;53.500;10.176;2023-11-22T01:52:59;0.00;99.90
7030;DHT22;3556;53.500;10.176;2023-11-22T01:55:25;0.00;99.90
7030;DHT22;3556;53.500;10.176;2023-11-22T01:57:51;0.00;99.90
7030;DHT22;3556;53.500;10.176;2023-11-22T02:00:19;0.00;99.90
7030;DHT22;3556;53.500;10.176;2023-11-22T02:02:46;0.00;99.90
7030;DHT22;3556;53.500;10.176;2023-11-22T02:05:12;0.00;99.90
7030;DHT22;3556;53.500;10.176;2023-11-22T02:07:38;-0.10;99.90
7030;DHT22;3556;53.500;10.176;2023-11-22T02:10:06;-0.10;99.90
7030;DHT22;3556;53.500;10.176;2023-11-22T02:12:32;-0.10;99.90
7030;DHT22;3556;53.500;10.176;2023-11-22T02:14:59;-0.20;99.90
7030;DHT22;3556;53.500;10.176;2023-11-22T02:17:24;-0.20;99.90
7030;DHT22;3556;53.500;10.176;2023-11-22T02:19:50;-0.20;99.90
7030;DHT22;3556;53.500;10.176;2023-11-22T02:22:17;-0.30;99.90
7030;DHT22;3556;53.500;10.176;2023-11-22T02:24:42;-0.30;99.90
7030;DHT22;3556;53.500;10.176;2023-11-22T02:27:08;-0.30;99.90
7030;DHT22;3556;53.500;10.176;2023-11-22T02:29:34;-0.40;99.90
7030;DHT22;3556;53.500;10.176;2023-11-22T02:31:59;-0.40;99.90
7030;DHT22;3556;53.500;10.176;2023-11-22T02:34:25;-0.40;99.90
7030;DHT22;3556;53.500;10.176;2023-11-22T02:36:51;-0.40;99.90
7030;DHT22;3556;53.500;10.176;2023-11-22T02:39:16;-0.40;99.90
7030;DHT22;3556;53.500;10.176;2023-11-22T02:41:42;-0.50;99.90
7030;DHT22;3556;53.500;10.176;2023-11-22T02:44:08;-0.50;99.90
7030;DHT22;3556;53.500;10.176;2023-11-22T02:46:33;-0.50;99.90
7030;DHT22;3556;53.500;10.176;2023-11-22T02:48:59;-0.50;99.90
7030;DHT22;3556;53.500;10.176;2023-11-22T02:51:25;-0.50;99.90
7030;DHT22;3556;53.500;10.176;2023-11-22T02:53:51;-0.60;99.90
7030;DHT22;3556;53.500;10.176;2023-11-22T02:56:17;-0.60;99.90
7030;DHT22;3556;53.500;10.176;2023-11-22T02:58:42;-0.60;99.90
7030;DHT22;3556;53.500;10.176;2023-11-22T03:01:08;-0.60;99.90
7030;DHT22;3556;53.500;10.176;2023-11-22T03:03:34;-0.60;99.90
7030;DHT22;3556;53.500;10.176;2023-11-22T03:06:00;-0.70;99.90
7030;DHT22;3556;53.500;10.176;2023-11-22T03:08:26;-0.70;99.90
7030;DHT22;3556;53.500;10.176;2023-11-22T03:10:52;-0.70;99.90
7030;DHT22;3556;53.500;10.176;2023-11-22T03:13:18;-0.70;99.90
7030;DHT22;3556;53.500;10.176;2023-11-22T03:15:44;-0.60;99.90
7030;DHT22;3556;53.500;10.176;2023-11-22T03:18:10;-0.60;99.90
7030;DHT22;3556;53.500;10.176;2023-11-22T03:20:37;-0.60;99.90
7030;DHT22;3556;53.500;10.176;2023-11-22T03:23:03;-0.60;99.90
7030;DHT22;3556;53.500;10.176;2023-11-22T03:25:29;-0.60;99.90
7030;DHT22;3556;53.500;10.176;2023-11-22T03:27:54;-0.60;99.90
7030;DHT22;3556;53.500;10.176;2023-11-22T03:30:21;-0.60;99.90
7030;DHT22;3556;53.500;10.176;2023-11-22T03:32:47;-0.60;99.90
7030;DHT22;3556;53.500;10.176;2023-11-22T03:35:13;-0.70;99.90
7030;DHT22;3556;53.500;10.176;2023-11-22T03:37:39;-0.70;99.90
7030;DHT22;3556;53.500;10.176;2023-11-22T03:40:05;-0.70;99.90
7030;DHT22;3556;53.500;10.176;2023-11-22T03:42:31;-0.70;99.90
7030;DHT22;3556;53.500;10.176;2023-11-22T03:44:56;-0.80;99.90
7030;DHT22;3556;53.500;10.176;2023-11-22T03:47:24;-0.80;99.90
7030;DHT22;3556;53.500;10.176;2023-11-22T03:49:50;-0.80;99.90
7030;DHT22;3556;53.500;10.176;2023-11-22T03:52:15;-0.90;99.90
7030;DHT22;3556;53.500;10.176;2023-11-22T03:54:41;-0.90;99.90
7030;DHT22;3556;53.500;10.176;2023-11-22T03:57:06;-0.90;99.90
7030;DHT22;3556;53.500;10.176;2023-11-22T03:59:34;-0.90;99.90
7030;DHT22;3556;53.500;10.176;2023-11-22T04:02:00;-1.00;99.90
7030;DHT22;3556;53.500;10.176;2023-11-22T04:04:26;-1.00;99.90
7030;DHT22;3556;53.500;10.176;2023-11-22T04:06:51;-1.00;99.90
7030;DHT22;3556;53.500;10.176;2023-11-22T04:09:18;-1.00;99.90
7030;DHT22;3556;53.500;10.176;2023-11-22T04:11:44;-1.00;99.90
7030;DHT22;3556;53.500;10.176;2023-11-22T04:14:09;-1.00;99.90
7030;DHT22;3556;53.500;10.176;2023-11-22T04:16:35;-1.00;99.90
7030;DHT22;3556;53.500;10.176;2023-11-22T04:19:01;-1.00;99.90
7030;DHT22;3556;53.500;10.176;2023-11-22T04:21:27;-1.00;99.90
7030;DHT22;3556;53.500;10.176;2023-11-22T04:23:52;-1.10;99.90
7030;DHT22;3556;53.500;10.176;2023-11-22T04:26:18;-1.10;99.90
7030;DHT22;3556;53.500;10.176;2023-11-22T04:28:45;-1.10;99.90
7030;DHT22;3556;53.500;10.176;2023-11-22T04:31:11;-1.10;99.90
7030;DHT22;3556;53.500;10.176;2023-11-22T04:33:36;-1.10;99.90
7030;DHT22;3556;53.500;10.176;2023-11-22T04:36:03;-1.10;99.90
7030;DHT22;3556;53.500;10.176;2023-11-22T04:38:28;-1.20;99.90
7030;DHT22;3556;53.500;10.176;2023-11-22T04:40:54;-1.20;99.90
7030;DHT22;3556;53.500;10.176;2023-11-22T04:43:20;-1.20;99.90
7030;DHT22;3556;53.500;10.176;2023-11-22T04:45:45;-1.20;99.90
7030;DHT22;3556;53.500;10.176;2023-11-22T04:48:11;-1.20;99.90
7030;DHT22;3556;53.500;10.176;2023-11-22T04:50:41;-1.20;99.90
7030;DHT22;3556;53.500;10.176;2023-11-22T04:53:06;-1.20;99.90
7030;DHT22;3556;53.500;10.176;2023-11-22T04:55:32;-1.20;99.90
7030;DHT22;3556;53.500;10.176;2023-11-22T04:57:57;-1.20;99.90
7030;DHT22;3556;53.500;10.176;2023-11-22T05:00:23;-1.20;99.90
7030;DHT22;3556;53.500;10.176;2023-11-22T05:02:49;-1.30;99.90
7030;DHT22;3556;53.500;10.176;2023-11-22T05:05:14;-1.30;99.90
7030;DHT22;3556;53.500;10.176;2023-11-22T05:07:40;-1.30;99.90
7030;DHT22;3556;53.500;10.176;2023-11-22T05:10:06;-1.30;99.90
7030;DHT22;3556;53.500;10.176;2023-11-22T05:12:35;-1.30;99.90
7030;DHT22;3556;53.500;10.176;2023-11-22T05:15:02;-1.30;99.90
7030;DHT22;3556;53.500;10.176;2023-11-22T05:17:28;-1.40;99.90
7030;DHT22;3556;53.500;10.176;2023-11-22T05:19:53;-1.40;99.90
7030;DHT22;3556;53.500;10.176;2023-11-22T05:22:19;-1.40;99.90
7030;DHT22;3556;53.500;10.176;2023-11-22T05:24:44;-1.40;99.90
7030;DHT22;3556;53.500;10.176;2023-11-22T05:27:10;-1.40;99.90
7030;DHT22;3556;53.500;10.176;2023-11-22T05:29:36;-1.40;99.90
7030;DHT22;3556;53.500;10.176;2023-11-22T05:32:02;-1.50;99.90
7030;DHT22;3556;53.500;10.176;2023-11-22T05:34:29;-1.50;99.90
7030;DHT22;3556;53.500;10.176;2023-11-22T05:36:54;-1.50;99.90
7030;DHT22;3556;53.500;10.176;2023-11-22T05:39:20;-1.50;99.90
7030;DHT22;3556;53.500;10.176;2023-11-22T05:41:48;-1.50;99.90
7030;DHT22;3556;53.500;10.176;2023-11-22T05:44:14;-1.50;99.90
7030;DHT22;3556;53.500;10.176;2023-11-22T05:46:40;-1.60;99.90
7030;DHT22;3556;53.500;10.176;2023-11-22T05:49:05;-1.60;99.90
7030;DHT22;3556;53.500;10.176;2023-11-22T05:51:31;-1.50;99.90
7030;DHT22;3556;53.500;10.176;2023-11-22T05:53:57;-1.60;99.90
7030;DHT22;3556;53.500;10.176;2023-11-22T05:56:23;-1.50;99.90
7030;DHT22;3556;53.500;10.176;2023-11-22T05:58:49;-1.60;99.90
7030;DHT22;3556;53.500;10.176;2023-11-22T06:01:14;-1.60;99.90
7030;DHT22;3556;53.500;10.176;2023-11-22T06:03:40;-1.60;99.90
7030;DHT22;3556;53.500;10.176;2023-11-22T06:06:06;-1.60;99.90
7030;DHT22;3556;53.500;10.176;2023-11-22T06:08:33;-1.60;99.90
7030;DHT22;3556;53.500;10.176;2023-11-22T06:10:58;-1.60;99.90
7030;DHT22;3556;53.500;10.176;2023-11-22T06:13:25;-1.60;99.90
7030;DHT22;3556;53.500;10.176;2023-11-22T06:15:52;-1.60;99.90
7030;DHT22;3556;53.500;10.176;2023-11-22T06:18:18;-1.60;99.90
7030;DHT22;3556;53.500;10.176;2023-11-22T06:20:45;-1.60;99.90
7030;DHT22;3556;53.500;10.176;2023-11-22T06:23:10;-1.60;99.90
7030;DHT22;3556;53.500;10.176;2023-11-22T06:25:36;-1.60;99.90
7030;DHT22;3556;53.500;10.176;2023-11-22T06:28:02;-1.60;99.90
7030;DHT22;3556;53.500;10.176;2023-11-22T06:30:28;-1.60;99.90
7030;DHT22;3556;53.500;10.176;2023-11-22T06:32:55;-1.60;99.90
7030;DHT22;3556;53.500;10.176;2023-11-22T06:35:21;-1.60;99.90
7030;DHT22;3556;53.500;10.176;2023-11-22T06:37:47;-1.60;99.90
7030;DHT22;3556;53.500;10.176;2023-11-22T06:40:12;-1.50;99.90
7030;DHT22;3556;53.500;10.176;2023-11-22T06:42:39;-1.50;99.90
7030;DHT22;3556;53.500;10.176;2023-11-22T06:45:06;-1.50;99.90
7030;DHT22;3556;53.500;10.176;2023-11-22T06:47:35;-1.50;99.90
7030;DHT22;3556;53.500;10.176;2023-11-22T06:50:02;-1.50;99.90
7030;DHT22;3556;53.500;10.176;2023-11-22T06:52:29;-1.50;99.90
7030;DHT22;3556;53.500;10.176;2023-11-22T06:54:55;-1.40;99.90
7030;DHT22;3556;53.500;10.176;2023-11-22T06:57:20;-1.40;99.90
7030;DHT22;3556;53.500;10.176;2023-11-22T06:59:53;-1.40;99.90
7030;DHT22;3556;53.500;10.176;2023-11-22T07:02:19;-1.30;99.90
7030;DHT22;3556;53.500;10.176;2023-11-22T07:04:45;-1.30;99.90
7030;DHT22;3556;53.500;10.176;2023-11-22T07:07:10;-1.30;99.90
7030;DHT22;3556;53.500;10.176;2023-11-22T07:09:36;-1.30;99.90
7030;DHT22;3556;53.500;10.176;2023-11-22T07:12:02;-1.20;99.90
7030;DHT22;3556;53.500;10.176;2023-11-22T07:14:31;-1.30;99.90
7030;DHT22;3556;53.500;10.176;2023-11-22T07:16:57;-1.20;99.90
7030;DHT22;3556;53.500;10.176;2023-11-22T07:19:23;-1.20;99.90
7030;DHT22;3556;53.500;10.176;2023-11-22T07:21:49;-1.20;99.90
7030;DHT22;3556;53.500;10.176;2023-11-22T07:24:14;-1.10;99.90
7030;DHT22;3556;53.500;10.176;2023-11-22T07:26:41;-1.10;99.90
7030;DHT22;3556;53.500;10.176;2023-11-22T07:29:08;-1.10;99.90
7030;DHT22;3556;53.500;10.176;2023-11-22T07:31:33;-1.00;99.90
7030;DHT22;3556;53.500;10.176;2023-11-22T07:33:59;-1.00;99.90
7030;DHT22;3556;53.500;10.176;2023-11-22T07:36:27;-1.00;99.90
7030;DHT22;3556;53.500;10.176;2023-11-22T07:38:54;-0.90;99.90
7030;DHT22;3556;53.500;10.176;2023-11-22T07:41:19;-0.90;99.90
7030;DHT22;3556;53.500;10.176;2023-11-22T07:43:46;-0.90;99.90
7030;DHT22;3556;53.500;10.176;2023-11-22T07:46:12;-0.90;99.90
7030;DHT22;3556;53.500;10.176;2023-11-22T07:48:38;-0.80;99.90
7030;DHT22;3556;53.500;10.176;2023-11-22T07:51:06;-0.80;99.90
7030;DHT22;3556;53.500;10.176;2023-11-22T07:53:32;-0.70;99.90
7030;DHT22;3556;53.500;10.176;2023-11-22T07:56:00;-0.70;99.90
7030;DHT22;3556;53.500;10.176;2023-11-22T07:58:30;-0.60;99.90
7030;DHT22;3556;53.500;10.176;2023-11-22T08:00:57;-0.60;99.90
7030;DHT22;3556;53.500;10.176;2023-11-22T08:03:22;-0.60;99.90
7030;DHT22;3556;53.500;10.176;2023-11-22T08:05:51;-0.50;99.90
7030;DHT22;3556;53.500;10.176;2023-11-22T08:08:19;-0.50;99.90
7030;DHT22;3556;53.500;10.176;2023-11-22T08:10:46;-0.40;99.90
7030;DHT22;3556;53.500;10.176;2023-11-22T08:13:13;-0.40;99.90
7030;DHT22;3556;53.500;10.176;2023-11-22T08:15:38;-0.30;99.90
7030;DHT22;3556;53.500;10.176;2023-11-22T08:18:04;-0.30;99.90
7030;DHT22;3556;53.500;10.176;2023-11-22T08:20:31;-0.20;99.90
7030;DHT22;3556;53.500;10.176;2023-11-22T08:22:57;-0.10;99.90
7030;DHT22;3556;53.500;10.176;2023-11-22T08:25:22;-0.10;99.90
7030;DHT22;3556;53.500;10.176;2023-11-22T08:27:49;-0.10;99.90
7030;DHT22;3556;53.500;10.176;2023-11-22T08:30:15;0.00;99.90
7030;DHT22;3556;53.500;10.176;2023-11-22T08:32:47;0.00;99.90
7030;DHT22;3556;53.500;10.176;2023-11-22T08:35:20;0.10;99.90
7030;DHT22;3556;53.500;10.176;2023-11-22T08:37:54;0.10;99.90
7030;DHT22;3556;53.500;10.176;2023-11-22T08:40:22;0.20;99.90
7030;DHT22;3556;53.500;10.176;2023-11-22T08:42:48;0.20;99.90
7030;DHT22;3556;53.500;10.176;2023-11-22T08:45:14;0.30;99.90
7030;DHT22;3556;53.500;10.176;2023-11-22T08:47:40;0.30;99.90
7030;DHT22;3556;53.500;10.176;2023-11-22T08:50:09;0.40;99.90
7030;DHT22;3556;53.500;10.176;2023-11-22T08:52:38;0.50;99.90
7030;DHT22;3556;53.500;10.176;2023-11-22T08:55:05;0.50;99.90
7030;DHT22;3556;53.500;10.176;2023-11-22T08:57:36;0.60;99.90
7030;DHT22;3556;53.500;10.176;2023-11-22T09:00:06;0.60;99.90
7030;DHT22;3556;53.500;10.176;2023-11-22T09:02:37;0.70;99.90
7030;DHT22;3556;53.500;10.176;2023-11-22T09:05:04;0.70;99.90
7030;DHT22;3556;53.500;10.176;2023-11-22T09:07:33;0.80;99.90
7030;DHT22;3556;53.500;10.176;2023-11-22T09:10:01;0.90;99.90
7030;DHT22;3556;53.500;10.176;2023-11-22T09:12:34;0.90;99.90
7030;DHT22;3556;53.500;10.176;2023-11-22T09:15:00;0.90;99.90
7030;DHT22;3556;53.500;10.176;2023-11-22T09:17:26;1.00;99.90
7030;DHT22;3556;53.500;10.176;2023-11-22T09:19:52;1.00;99.90
7030;DHT22;3556;53.500;10.176;2023-11-22T09:22:17;1.10;99.90
7030;DHT22;3556;53.500;10.176;2023-11-22T09:24:43;1.10;99.90
7030;DHT22;3556;53.500;10.176;2023-11-22T09:27:10;1.10;99.90
7030;DHT22;3556;53.500;10.176;2023-11-22T09:29:40;1.20;99.90
7030;DHT22;3556;53.500;10.176;2023-11-22T09:32:06;1.20;99.90
7030;DHT22;3556;53.500;10.176;2023-11-22T09:34:31;1.30;99.90
7030;DHT22;3556;53.500;10.176;2023-11-22T09:36:57;1.40;99.90
7030;DHT22;3556;53.500;10.176;2023-11-22T09:39:26;1.40;99.90
7030;DHT22;3556;53.500;10.176;2023-11-22T09:41:53;1.50;99.90
7030;DHT22;3556;53.500;10.176;2023-11-22T09:44:19;1.60;99.90
7030;DHT22;3556;53.500;10.176;2023-11-22T09:46:47;1.60;99.90
7030;DHT22;3556;53.500;10.176;2023-11-22T09:49:15;1.70;99.90
7030;DHT22;3556;53.500;10.176;2023-11-22T09:51:44;1.70;99.90
7030;DHT22;3556;53.500;10.176;2023-11-22T09:54:10;1.80;99.90
7030;DHT22;3556;53.500;10.176;2023-11-22T09:56:40;1.80;99.90
7030;DHT22;3556;53.500;10.176;2023-11-22T09:59:07;1.90;99.90
7030;DHT22;3556;53.500;10.176;2023-11-22T10:01:33;1.90;99.90
7030;DHT22;3556;53.500;10.176;2023-11-22T10:04:03;2.00;99.90
7030;DHT22;3556;53.500;10.176;2023-11-22T10:06:33;2.00;99.90
7030;DHT22;3556;53.500;10.176;2023-11-22T10:09:04;2.10;99.90
7030;DHT22;3556;53.500;10.176;2023-11-22T10:11:33;2.10;99.90
7030;DHT22;3556;53.500;10.176;2023-11-22T10:13:58;2.10;99.90
7030;DHT22;3556;53.500;10.176;2023-11-22T10:16:24;2.20;99.90
7030;DHT22;3556;53.500;10.176;2023-11-22T10:18:50;2.20;99.90
7030;DHT22;3556;53.500;10.176;2023-11-22T10:21:23;2.30;99.90
7030;DHT22;3556;53.500;10.176;2023-11-22T10:23:52;2.30;99.90
7030;DHT22;3556;53.500;10.176;2023-11-22T10:26:18;2.40;99.90
7030;DHT22;3556;53.500;10.176;2023-11-22T10:28:44;2.40;99.90
7030;DHT22;3556;53.500;10.176;2023-11-22T10:31:10;2.50;99.90
7030;DHT22;3556;53.500;10.176;2023-11-22T10:33:39;2.50;99.90
7030;DHT22;3556;53.500;10.176;2023-11-22T10:36:07;2.60;99.90
7030;DHT22;3556;53.500;10.176;2023-11-22T10:38:34;2.60;99.90
7030;DHT22;3556;53.500;10.176;2023-11-22T10:41:03;2.70;99.90
7030;DHT22;3556;53.500;10.176;2023-11-22T10:43:30;2.70;99.90
7030;DHT22;3556;53.500;10.176;2023-11-22T10:45:58;2.70;99.90
7030;DHT22;3556;53.500;10.176;2023-11-22T10:48:24;2.80;99.90
7030;DHT22;3556;53.500;10.176;2023-11-22T10:50:53;2.80;99.90
7030;DHT22;3556;53.500;10.176;2023-11-22T10:53:28;2.80;99.90
7030;DHT22;3556;53.500;10.176;2023-11-22T10:56:12;2.90;99.90
7030;DHT22;3556;53.500;10.176;2023-11-22T11:01:15;3.00;99.90
7030;DHT22;3556;53.500;10.176;2023-11-22T11:03:46;3.00;99.90
7030;DHT22;3556;53.500;10.176;2023-11-22T11:06:20;3.10;99.90
7030;DHT22;3556;53.500;10.176;2023-11-22T11:08:47;3.10;99.90
7030;DHT22;3556;53.500;10.176;2023-11-22T11:11:14;3.10;99.90
7030;DHT22;3556;53.500;10.176;2023-11-22T11:13:40;3.20;99.90
7030;DHT22;3556;53.500;10.176;2023-11-22T11:16:07;3.20;99.90
7030;DHT22;3556;53.500;10.176;2023-11-22T11:18:33;3.30;99.90
7030;DHT22;3556;53.500;10.176;2023-11-22T11:21:08;3.20;99.90
7030;DHT22;3556;53.500;10.176;2023-11-22T11:23:34;3.30;99.90
7030;DHT22;3556;53.500;10.176;2023-11-22T11:26:15;3.30;99.90
7030;DHT22;3556;53.500;10.176;2023-11-22T11:28:49;3.30;99.90
7030;DHT22;3556;53.500;10.176;2023-11-22T11:31:15;3.30;99.90
7030;DHT22;3556;53.500;10.176;2023-11-22T11:36:31;3.40;99.90
7030;DHT22;3556;53.500;10.176;2023-11-22T11:39:02;3.40;99.90
7030;DHT22;3556;53.500;10.176;2023-11-22T11:41:32;3.40;99.90
7030;DHT22;3556;53.500;10.176;2023-11-22T11:44:01;3.40;99.90
7030;DHT22;3556;53.500;10.176;2023-11-22T11:46:26;3.40;99.90
7030;DHT22;3556;53.500;10.176;2023-11-22T11:48:54;3.50;99.90
7030;DHT22;3556;53.500;10.176;2023-11-22T11:51:25;3.60;99.90
7030;DHT22;3556;53.500;10.176;2023-11-22T11:53:51;3.60;99.90
7030;DHT22;3556;53.500;10.176;2023-11-22T11:56:17;3.60;99.90
7030;DHT22;3556;53.500;10.176;2023-11-22T11:58:47;3.70;99.90
7030;DHT22;3556;53.500;10.176;2023-11-22T12:01:15;3.80;44.20
7030;DHT22;3556;53.500;10.176;2023-11-22T12:03:48;3.80;1.00
7030;DHT22;3556;53.500;10.176;2023-11-22T12:06:15;3.80;1.00
7030;DHT22;3556;53.500;10.176;2023-11-22T12:08:42;3.90;1.00
7030;DHT22;3556;53.500;10.176;2023-11-22T12:11:07;3.90;1.00
7030;DHT22;3556;53.500;10.176;2023-11-22T12:13:34;3.90;1.00
7030;DHT22;3556;53.500;10.176;2023-11-22T12:16:04;3.90;1.00
7030;DHT22;3556;53.500;10.176;2023-11-22T12:18:40;4.00;1.00
7030;DHT22;3556;53.500;10.176;2023-11-22T12:21:06;3.90;99.90
7030;DHT22;3556;53.500;10.176;2023-11-22T12:23:32;4.00;99.90
7030;DHT22;3556;53.500;10.176;2023-11-22T12:25:58;4.00;99.90
7030;DHT22;3556;53.500;10.176;2023-11-22T12:28:26;3.90;99.90
7030;DHT22;3556;53.500;10.176;2023-11-22T12:30:52;3.90;77.80
7030;DHT22;3556;53.500;10.176;2023-11-22T12:33:19;3.90;84.20
7030;DHT22;3556;53.500;10.176;2023-11-22T12:35:45;4.00;99.90
7030;DHT22;3556;53.500;10.176;2023-11-22T12:38:11;3.90;99.90
7030;DHT22;3556;53.500;10.176;2023-11-22T12:40:37;3.90;97.90
7030;DHT22;3556;53.500;10.176;2023-11-22T12:43:03;3.90;99.90
7030;DHT22;3556;53.500;10.176;2023-11-22T12:45:30;3.90;1.00
7030;DHT22;3556;53.500;10.176;2023-11-22T12:47:59;3.90;1.00
7030;DHT22;3556;53.500;10.176;2023-11-22T12:50:35;3.90;99.90
7030;DHT22;3556;53.500;10.176;2023-11-22T12:53:14;3.90;1.00
7030;DHT22;3556;53.500;10.176;2023-11-22T12:55:44;3.80;1.00
7030;DHT22;3556;53.500;10.176;2023-11-22T12:58:11;3.80;99.90
7030;DHT22;3556;53.500;10.176;2023-11-22T13:00:40;3.80;1.00
7030;DHT22;3556;53.500;10.176;2023-11-22T13:03:10;3.80;1.00
7030;DHT22;3556;53.500;10.176;2023-11-22T13:05:36;3.80;1.00
7030;DHT22;3556;53.500;10.176;2023-11-22T13:08:02;3.80;99.90
7030;DHT22;3556;53.500;10.176;2023-11-22T13:10:29;3.80;1.00
7030;DHT22;3556;53.500;10.176;2023-11-22T13:12:56;3.80;1.00
7030;DHT22;3556;53.500;10.176;2023-11-22T13:15:22;3.80;99.90
7030;DHT22;3556;53.500;10.176;2023-11-22T13:17:49;3.80;1.00
7030;DHT22;3556;53.500;10.176;2023-11-22T13:20:15;3.80;99.90
7030;DHT22;3556;53.500;10.176;2023-11-22T13:22:41;3.80;99.90
7030;DHT22;3556;53.500;10.176;2023-11-22T13:25:10;3.80;1.00
7030;DHT22;3556;53.500;10.176;2023-11-22T13:27:40;3.70;34.80
7030;DHT22;3556;53.500;10.176;2023-11-22T13:30:06;3.70;1.00
7030;DHT22;3556;53.500;10.176;2023-11-22T13:32:32;3.70;69.00
7030;DHT22;3556;53.500;10.176;2023-11-22T13:34:58;3.70;99.90
7030;DHT22;3556;53.500;10.176;2023-11-22T13:37:24;3.70;1.00
7030;DHT22;3556;53.500;10.176;2023-11-22T13:39:50;3.70;1.00
7030;DHT22;3556;53.500;10.176;2023-11-22T13:42:16;3.60;99.90
7030;DHT22;3556;53.500;10.176;2023-11-22T13:44:42;3.60;99.90
7030;DHT22;3556;53.500;10.176;2023-11-22T13:47:09;3.50;1.00
7030;DHT22;3556;53.500;10.176;2023-11-22T13:49:35;3.50;99.90
7030;DHT22;3556;53.500;10.176;2023-11-22T13:52:02;3.50;99.90
7030;DHT22;3556;53.500;10.176;2023-11-22T13:54:28;3.50;1.00
7030;DHT22;3556;53.500;10.176;2023-11-22T13:56:54;3.40;1.00
7030;DHT22;3556;53.500;10.176;2023-11-22T13:59:19;3.40;1.00
7030;DHT22;3556;53.500;10.176;2023-11-22T14:01:45;3.40;69.60
7030;DHT22;3556;53.500;10.176;2023-11-22T14:04:11;3.30;1.00
7030;DHT22;3556;53.500;10.176;2023-11-22T14:06:37;3.30;58.40
7030;DHT22;3556;53.500;10.176;2023-11-22T14:09:02;3.30;99.90
7030;DHT22;3556;53.500;10.176;2023-11-22T14:11:28;3.30;99.90
7030;DHT22;3556;53.500;10.176;2023-11-22T14:13:55;3.20;1.00
7030;DHT22;3556;53.500;10.176;2023-11-22T14:16:21;3.20;1.00
7030;DHT22;3556;53.500;10.176;2023-11-22T14:18:46;3.10;1.00
7030;DHT22;3556;53.500;10.176;2023-11-22T14:21:12;3.10;1.00
7030;DHT22;3556;53.500;10.176;2023-11-22T14:23:38;3.10;99.90
7030;DHT22;3556;53.500;10.176;2023-11-22T14:26:03;3.10;1.00
7030;DHT22;3556;53.500;10.176;2023-11-22T14:28:29;3.10;16.60
7030;DHT22;3556;53.500;10.176;2023-11-22T14:30:55;3.00;99.90
7030;DHT22;3556;53.500;10.176;2023-11-22T14:33:21;3.00;1.00
7030;DHT22;3556;53.500;10.176;2023-11-22T14:35:47;3.00;99.90
7030;DHT22;3556;53.500;10.176;2023-11-22T14:38:13;3.00;99.90
7030;DHT22;3556;53.500;10.176;2023-11-22T14:40:39;2.90;1.00
7030;DHT22;3556;53.500;10.176;2023-11-22T14:43:06;3.00;1.00
7030;DHT22;3556;53.500;10.176;2023-11-22T14:45:32;2.90;99.90
7030;DHT22;3556;53.500;10.176;2023-11-22T14:47:58;2.90;1.00
7030;DHT22;3556;53.500;10.176;2023-11-22T14:50:24;2.90;1.00
7030;DHT22;3556;53.500;10.176;2023-11-22T14:52:53;2.90;99.90
7030;DHT22;3556;53.500;10.176;2023-11-22T14:55:20;2.80;1.00
7030;DHT22;3556;53.500;10.176;2023-11-22T14:57:48;2.80;1.00
7030;DHT22;3556;53.500;10.176;2023-11-22T15:00:14;2.80;1.00
7030;DHT22;3556;53.500;10.176;2023-11-22T15:02:40;2.80;99.90
7030;DHT22;3556;53.500;10.176;2023-11-22T15:05:13;2.80;99.90
7030;DHT22;3556;53.500;10.176;2023-11-22T15:07:39;2.70;1.00
7030;DHT22;3556;53.500;10.176;2023-11-22T15:10:10;2.70;1.00
7030;DHT22;3556;53.500;10.176;2023-11-22T15:12:37;2.70;99.90
7030;DHT22;3556;53.500;10.176;2023-11-22T15:15:05;2.70;99.90
7030;DHT22;3556;53.500;10.176;2023-11-22T15:17:32;2.70;55.50
7030;DHT22;3556;53.500;10.176;2023-11-22T15:19:58;2.70;99.90
7030;DHT22;3556;53.500;10.176;2023-11-22T15:22:24;2.70;99.90
7030;DHT22;3556;53.500;10.176;2023-11-22T15:24:49;2.70;99.90
7030;DHT22;3556;53.500;10.176;2023-11-22T15:27:15;2.60;1.00
7030;DHT22;3556;53.500;10.176;2023-11-22T15:29:41;2.70;1.00
7030;DHT22;3556;53.500;10.176;2023-11-22T15:32:06;2.60;1.00
7030;DHT22;3556;53.500;10.176;2023-11-22T15:34:32;2.60;99.90
7030;DHT22;3556;53.500;10.176;2023-11-22T15:36:57;2.60;99.90
7030;DHT22;3556;53.500;10.176;2023-11-22T15:39:23;2.60;1.00
7030;DHT22;3556;53.500;10.176;2023-11-22T15:41:50;2.60;1.00
7030;DHT22;3556;53.500;10.176;2023-11-22T15:44:16;2.60;1.00
7030;DHT22;3556;53.500;10.176;2023-11-22T15:46:42;2.60;99.90
7030;DHT22;3556;53.500;10.176;2023-11-22T15:49:08;2.60;99.90
7030;DHT22;3556;53.500;10.176;2023-11-22T15:51:34;2.60;99.90
7030;DHT22;3556;53.500;10.176;2023-11-22T15:54:01;2.60;99.90
7030;DHT22;3556;53.500;10.176;2023-11-22T15:56:26;2.60;99.90
7030;DHT22;3556;53.500;10.176;2023-11-22T15:58:53;2.60;1.00